createdAt,value
2017-07-14T00:02:03.318Z,1.33
2017-07-14T00:04:37.634Z,1.33
2017-07-14T00:07:11.849Z,1.60
2017-07-14T00:09:46.266Z,1.20
2017-07-14T00:12:19.871Z,1.37
2017-07-14T00:14:53.478Z,1.30
2017-07-14T00:17:27.681Z,1.27
2017-07-14T00:20:02.211Z,1.40
2017-07-14T00:22:35.730Z,2.40
2017-07-14T00:25:10.229Z,1.07
2017-07-14T00:27:43.825Z,1.17
2017-07-14T00:30:17.739Z,1.10
2017-07-14T00:32:51.334Z,1.53
2017-07-14T00:35:24.829Z,1.47
2017-07-14T00:37:58.430Z,1.40
2017-07-14T00:40:32.134Z,1.80
2017-07-14T00:43:05.738Z,1.43
2017-07-14T00:45:39.437Z,1.30
2017-07-14T00:48:14.527Z,1.40
2017-07-14T00:50:48.159Z,1.53
2017-07-14T00:53:21.899Z,1.37
2017-07-14T00:55:55.634Z,1.47
2017-07-14T00:58:29.279Z,1.60
2017-07-14T01:01:03.085Z,1.30
2017-07-14T01:03:36.790Z,1.20
2017-07-14T01:06:11.082Z,1.37
2017-07-14T01:08:44.845Z,1.40
2017-07-14T01:11:18.515Z,1.40
2017-07-14T01:13:52.826Z,1.57
2017-07-14T01:16:27.763Z,1.40
2017-07-14T01:19:01.462Z,1.50
2017-07-14T01:21:35.071Z,1.60
2017-07-14T01:24:08.672Z,1.30
2017-07-14T01:26:42.273Z,1.43
2017-07-14T01:29:16.547Z,1.30
2017-07-14T01:31:50.079Z,1.70
2017-07-14T01:34:23.899Z,1.63
2017-07-14T01:36:57.795Z,1.67
2017-07-14T01:39:31.495Z,1.23
2017-07-14T01:42:05.302Z,1.40
2017-07-14T01:44:39.011Z,1.43
2017-07-14T01:47:13.317Z,1.40
2017-07-14T01:49:46.783Z,2.10
2017-07-14T01:52:21.319Z,1.50
2017-07-14T01:54:54.936Z,1.47
2017-07-14T01:57:28.543Z,1.73
2017-07-14T02:00:02.249Z,1.73
2017-07-14T02:02:35.746Z,1.30
2017-07-14T02:05:09.447Z,1.37
2017-07-14T02:07:43.760Z,1.23
2017-07-14T02:10:17.463Z,1.60
2017-07-14T02:12:50.958Z,2.43
2017-07-14T02:15:24.563Z,1.70
2017-07-14T02:17:58.159Z,1.47
2017-07-14T02:20:32.107Z,1.70
2017-07-14T02:23:05.670Z,1.30
2017-07-14T02:25:39.982Z,2.33
2017-07-14T02:28:13.578Z,1.77
2017-07-14T02:30:47.066Z,1.40
2017-07-14T02:33:20.840Z,1.50
2017-07-14T02:35:54.491Z,1.03
2017-07-14T02:38:28.056Z,1.50
2017-07-14T02:41:01.690Z,1.50
2017-07-14T02:43:35.494Z,1.57
2017-07-14T02:46:09.923Z,1.30
2017-07-14T02:48:43.624Z,1.60
2017-07-14T02:51:17.424Z,1.30
2017-07-14T02:53:51.118Z,1.67
2017-07-14T02:56:24.723Z,1.90
2017-07-14T02:58:58.323Z,1.20
2017-07-14T03:01:31.927Z,1.43
2017-07-14T03:04:05.529Z,1.30
2017-07-14T03:06:39.231Z,1.43
2017-07-14T03:09:13.052Z,1.93
2017-07-14T03:11:46.756Z,1.20
2017-07-14T03:14:20.436Z,1.40
2017-07-14T03:16:53.998Z,1.50
2017-07-14T03:19:27.730Z,1.40
2017-07-14T03:22:01.446Z,1.20
2017-07-14T03:24:35.244Z,1.27
2017-07-14T03:27:08.847Z,1.27
2017-07-14T03:29:42.447Z,1.30
2017-07-14T03:32:16.150Z,1.33
2017-07-14T03:34:49.799Z,1.30
2017-07-14T03:37:23.455Z,2.50
2017-07-14T03:39:57.163Z,1.20
2017-07-14T03:42:31.055Z,1.50
2017-07-14T03:45:05.392Z,1.90
2017-07-14T03:47:39.066Z,1.67
2017-07-14T03:50:12.679Z,2.50
2017-07-14T03:52:46.228Z,1.97
2017-07-14T03:55:19.995Z,3.93
2017-07-14T03:57:54.503Z,1.67
2017-07-14T04:00:28.209Z,1.60
2017-07-14T04:03:01.806Z,3.03
2017-07-14T04:05:35.571Z,1.50
2017-07-14T04:08:09.826Z,1.80
2017-07-14T04:10:43.437Z,1.87
2017-07-14T04:13:17.032Z,1.50
2017-07-14T04:15:50.727Z,1.53
2017-07-14T04:18:24.824Z,1.30
2017-07-14T04:20:59.354Z,1.43
2017-07-14T04:23:33.582Z,1.50
2017-07-14T04:26:08.109Z,1.37
2017-07-14T04:28:41.704Z,1.20
2017-07-14T04:31:15.374Z,1.60
2017-07-14T04:33:49.009Z,1.37
2017-07-14T04:36:22.603Z,1.23
2017-07-14T04:38:56.202Z,1.30
2017-07-14T04:41:29.796Z,1.23
2017-07-14T04:44:03.415Z,1.50
2017-07-14T04:46:37.071Z,1.53
2017-07-14T04:49:10.574Z,1.87
2017-07-14T04:51:44.918Z,1.53
2017-07-14T04:54:18.628Z,1.57
2017-07-14T04:56:52.222Z,1.77
2017-07-14T04:59:25.925Z,1.53
2017-07-14T05:02:00.450Z,1.40
2017-07-14T05:04:33.947Z,1.40
2017-07-14T05:07:07.546Z,1.43
2017-07-14T05:09:41.146Z,1.80
2017-07-14T05:12:14.743Z,1.33
2017-07-14T05:14:48.347Z,2.13
2017-07-14T05:17:21.848Z,1.53
2017-07-14T05:19:55.379Z,1.93
2017-07-14T05:22:29.146Z,1.70
2017-07-14T05:25:02.750Z,1.43
2017-07-14T05:27:36.580Z,1.77
2017-07-14T05:30:10.151Z,2.43
2017-07-14T05:32:43.805Z,1.90
2017-07-14T05:35:18.331Z,1.57
2017-07-14T05:37:52.190Z,1.73
2017-07-14T05:40:25.779Z,1.93
2017-07-14T05:42:59.331Z,2.00
2017-07-14T05:45:32.987Z,1.97
2017-07-14T05:48:06.587Z,1.70
2017-07-14T05:50:40.491Z,1.80
2017-07-14T05:53:14.199Z,2.50
2017-07-14T05:55:47.984Z,2.20
2017-07-14T05:58:21.905Z,1.70
2017-07-14T06:00:55.483Z,1.70
2017-07-14T06:03:29.108Z,2.10
2017-07-14T06:06:02.703Z,1.87
2017-07-14T06:08:37.540Z,1.97
2017-07-14T06:11:11.304Z,1.80
2017-07-14T06:13:46.176Z,1.67
2017-07-14T06:16:19.870Z,1.83
2017-07-14T06:18:53.541Z,1.50
2017-07-14T06:21:27.859Z,1.70
2017-07-14T06:24:01.490Z,1.77
2017-07-14T06:26:35.295Z,1.53
2017-07-14T06:29:09.111Z,1.90
2017-07-14T06:31:42.704Z,2.23
2017-07-14T06:34:16.501Z,2.10
2017-07-14T06:36:50.085Z,1.60
2017-07-14T06:39:23.807Z,1.97
2017-07-14T06:41:57.412Z,1.70
2017-07-14T06:44:31.107Z,1.60
2017-07-14T06:47:04.922Z,1.87
2017-07-14T06:49:39.234Z,2.10
2017-07-14T06:52:12.815Z,2.20
2017-07-14T06:54:46.648Z,2.20
2017-07-14T06:57:20.180Z,3.93
2017-07-14T06:59:54.783Z,2.30
2017-07-14T07:02:28.465Z,2.00
2017-07-14T07:05:02.472Z,2.27
2017-07-14T07:07:36.080Z,2.47
2017-07-14T07:10:09.679Z,2.40
2017-07-14T07:12:43.180Z,2.40
2017-07-14T07:15:16.784Z,1.93
2017-07-14T07:17:50.484Z,2.13
2017-07-14T07:20:24.592Z,2.23
2017-07-14T07:22:58.188Z,2.80
2017-07-14T07:25:32.009Z,2.40
2017-07-14T07:28:05.602Z,3.03
2017-07-14T07:30:39.398Z,2.90
2017-07-14T07:33:13.412Z,3.37
2017-07-14T07:35:47.215Z,2.90
2017-07-14T07:38:20.920Z,2.93
2017-07-14T07:40:54.519Z,3.17
2017-07-14T07:43:28.736Z,3.10
2017-07-14T07:46:02.280Z,3.10
2017-07-14T07:48:56.951Z,2.97
2017-07-14T07:51:30.527Z,2.30
2017-07-14T07:54:05.042Z,2.80
2017-07-14T07:56:38.743Z,2.00
2017-07-14T07:59:12.557Z,2.67
2017-07-14T08:01:46.251Z,2.60
2017-07-14T08:04:19.828Z,4.43
2017-07-14T08:06:53.455Z,2.27
2017-07-14T08:09:27.131Z,3.03
2017-07-14T08:12:01.683Z,2.53
2017-07-14T08:14:35.459Z,3.30
2017-07-14T08:17:09.187Z,3.00
2017-07-14T08:19:42.995Z,2.93
2017-07-14T08:22:16.707Z,3.20
2017-07-14T08:24:50.502Z,2.90
2017-07-14T08:27:24.015Z,3.30
2017-07-14T08:29:58.239Z,3.60
2017-07-14T08:32:33.355Z,3.30
2017-07-14T08:35:07.263Z,3.57
2017-07-14T08:37:40.854Z,3.03
2017-07-14T08:40:14.472Z,3.17
2017-07-14T08:42:48.053Z,2.90
2017-07-14T08:45:21.726Z,2.87
2017-07-14T08:47:55.475Z,2.53
2017-07-14T08:50:29.159Z,2.93
2017-07-14T08:53:02.773Z,3.40
2017-07-14T08:55:36.363Z,3.13
2017-07-14T08:58:10.072Z,3.17
2017-07-14T09:00:43.875Z,2.77
2017-07-14T09:03:17.470Z,2.80
2017-07-14T09:05:51.074Z,3.03
2017-07-14T09:08:24.675Z,2.60
2017-07-14T09:10:58.987Z,2.50
2017-07-14T09:13:32.541Z,2.30
2017-07-14T09:16:07.010Z,2.40
2017-07-14T09:18:40.570Z,3.13
2017-07-14T09:21:14.253Z,2.83
2017-07-14T09:23:48.115Z,2.47
2017-07-14T09:26:22.530Z,2.80
2017-07-14T09:28:56.338Z,2.83
2017-07-14T09:31:30.151Z,3.07
2017-07-14T09:34:04.731Z,2.50
2017-07-14T09:36:39.091Z,2.83
2017-07-14T09:39:12.692Z,2.90
2017-07-14T09:41:46.154Z,2.87
2017-07-14T09:44:19.890Z,3.13
2017-07-14T09:46:53.492Z,3.13
2017-07-14T09:49:27.186Z,2.80
2017-07-14T09:52:01.454Z,2.10
2017-07-14T09:54:35.110Z,2.00
2017-07-14T09:57:08.612Z,2.67
2017-07-14T09:59:42.308Z,2.80
2017-07-14T10:02:15.859Z,2.13
2017-07-14T10:04:49.517Z,2.60
2017-07-14T10:07:23.982Z,2.00
2017-07-14T10:09:57.745Z,2.10
2017-07-14T10:12:31.445Z,2.00
2017-07-14T10:15:05.040Z,2.17
2017-07-14T10:17:40.596Z,3.00
2017-07-14T10:20:14.399Z,2.13
2017-07-14T10:22:47.982Z,2.17
2017-07-14T10:25:21.589Z,2.30
2017-07-14T10:27:55.197Z,2.43
2017-07-14T10:30:28.799Z,2.13
2017-07-14T10:33:03.307Z,2.27
2017-07-14T10:35:37.967Z,2.83
2017-07-14T10:38:11.934Z,2.07
2017-07-14T10:40:46.364Z,1.90
2017-07-14T10:43:20.679Z,1.73
2017-07-14T10:45:54.479Z,1.37
2017-07-14T10:48:28.374Z,1.73
2017-07-14T10:51:02.163Z,1.80
2017-07-14T10:53:36.715Z,1.60
2017-07-14T10:56:10.329Z,1.70
2017-07-14T10:58:44.843Z,1.70
2017-07-14T11:01:18.743Z,1.47
2017-07-14T11:03:52.347Z,1.63
2017-07-14T11:06:25.943Z,1.70
2017-07-14T11:08:59.551Z,1.80
2017-07-14T11:11:33.650Z,1.53
2017-07-14T11:14:07.258Z,1.60
2017-07-14T11:16:40.958Z,1.37
2017-07-14T11:19:14.608Z,1.50
2017-07-14T11:21:48.376Z,1.43
2017-07-14T11:24:21.878Z,1.73
2017-07-14T11:26:56.390Z,1.30
2017-07-14T11:29:30.770Z,1.27
2017-07-14T11:32:04.819Z,1.70
2017-07-14T11:34:38.323Z,1.27
2017-07-14T11:37:11.907Z,1.47
2017-07-14T11:39:45.569Z,1.50
2017-07-14T11:42:19.221Z,1.40
2017-07-14T11:44:53.018Z,1.47
2017-07-14T11:47:26.623Z,1.50
2017-07-14T11:50:00.218Z,1.60
2017-07-14T11:52:34.145Z,1.70
2017-07-14T11:55:07.737Z,1.30
2017-07-14T11:57:41.334Z,1.60
2017-07-14T12:00:15.030Z,2.83
2017-07-14T12:02:48.811Z,1.87
2017-07-14T12:05:22.435Z,1.70
2017-07-14T12:07:56.013Z,2.10
2017-07-14T12:10:30.042Z,1.50
2017-07-14T12:13:03.646Z,2.10
2017-07-14T12:15:38.139Z,1.57
2017-07-14T12:18:11.939Z,1.30
2017-07-14T12:20:45.576Z,1.50
2017-07-14T12:23:19.378Z,2.00
2017-07-14T12:25:53.290Z,1.90
2017-07-14T12:28:27.199Z,2.07
2017-07-14T12:31:00.663Z,1.50
2017-07-14T12:33:34.286Z,1.70
2017-07-14T12:36:07.897Z,2.73
2017-07-14T12:38:42.406Z,1.83
2017-07-14T12:41:16.215Z,1.50
2017-07-14T12:43:50.759Z,1.97
2017-07-14T12:46:25.265Z,1.40
2017-07-14T12:48:59.075Z,1.87
2017-07-14T12:51:32.571Z,3.63
2017-07-14T12:54:06.275Z,2.33
2017-07-14T12:56:40.052Z,1.60
2017-07-14T12:59:13.779Z,1.70
2017-07-14T13:01:47.474Z,1.77
2017-07-14T13:04:21.184Z,1.63
2017-07-14T13:06:54.775Z,2.53
2017-07-14T13:09:28.941Z,1.83
2017-07-14T13:12:02.695Z,1.70
2017-07-14T13:14:36.299Z,1.80
2017-07-14T13:17:10.002Z,1.70
2017-07-14T13:19:43.576Z,1.50
2017-07-14T13:22:17.979Z,1.67
2017-07-14T13:24:51.524Z,1.77
2017-07-14T13:27:25.068Z,1.20
2017-07-14T13:29:59.435Z,1.67
2017-07-14T13:32:33.023Z,1.40
2017-07-14T13:35:07.709Z,2.00
2017-07-14T13:37:42.087Z,1.60
2017-07-14T13:40:15.681Z,1.50
2017-07-14T13:42:49.379Z,1.67
2017-07-14T13:45:23.899Z,1.50
2017-07-14T13:47:57.537Z,1.70
2017-07-14T13:50:32.042Z,1.60
2017-07-14T13:53:05.733Z,1.37
2017-07-14T13:55:40.152Z,1.37
2017-07-14T13:58:13.684Z,1.67
2017-07-14T14:00:48.071Z,2.20
2017-07-14T14:03:21.568Z,1.77
2017-07-14T14:05:55.162Z,1.77
2017-07-14T14:08:28.763Z,1.97
2017-07-14T14:11:02.358Z,2.00
2017-07-14T14:13:35.960Z,2.30
2017-07-14T14:16:09.547Z,1.43
2017-07-14T14:18:43.171Z,2.93
2017-07-14T14:21:16.771Z,2.10
2017-07-14T14:23:51.745Z,1.70
2017-07-14T14:26:25.395Z,1.50
2017-07-14T14:28:59.103Z,1.97
2017-07-14T14:31:33.523Z,1.90
2017-07-14T14:34:07.223Z,2.43
2017-07-14T14:36:41.053Z,1.40
2017-07-14T14:39:14.624Z,2.17
2017-07-14T14:41:48.114Z,2.00
2017-07-14T14:44:22.646Z,2.20
2017-07-14T14:46:56.455Z,1.97
2017-07-14T14:49:30.155Z,2.00
2017-07-14T14:52:03.787Z,2.47
2017-07-14T14:54:38.226Z,2.00
2017-07-14T14:57:11.860Z,1.90
2017-07-14T14:59:45.551Z,2.07
2017-07-14T15:02:19.288Z,1.90
2017-07-14T15:04:52.864Z,1.73
2017-07-14T15:07:26.587Z,2.33
2017-07-14T15:10:01.773Z,2.27
2017-07-14T15:12:35.823Z,2.07
2017-07-14T15:15:12.022Z,1.90
2017-07-14T15:17:46.525Z,1.90
2017-07-14T15:20:20.131Z,1.90
2017-07-14T15:22:53.825Z,1.80
2017-07-14T15:25:27.525Z,1.70
2017-07-14T15:28:01.536Z,2.20
2017-07-14T15:30:35.132Z,1.87
2017-07-14T15:33:08.738Z,1.57
2017-07-14T15:35:42.430Z,1.70
2017-07-14T15:38:16.134Z,2.70
2017-07-14T15:40:50.453Z,1.90
2017-07-14T15:43:24.980Z,2.27
2017-07-14T15:45:58.531Z,1.43
2017-07-14T15:48:32.484Z,1.90
2017-07-14T15:51:06.179Z,1.77
2017-07-14T15:53:39.992Z,2.03
2017-07-14T15:56:13.526Z,1.53
2017-07-14T15:58:47.082Z,1.93
2017-07-14T16:01:20.582Z,2.17
2017-07-14T16:03:54.183Z,2.33
2017-07-14T16:06:27.887Z,2.33
2017-07-14T16:09:01.486Z,2.13
2017-07-14T16:11:35.088Z,2.27
2017-07-14T16:14:08.787Z,1.90
2017-07-14T16:16:42.258Z,1.73
2017-07-14T16:19:16.096Z,2.07
2017-07-14T16:21:49.799Z,2.03
2017-07-14T16:24:23.600Z,2.30
2017-07-14T16:26:57.199Z,2.10
2017-07-14T16:29:31.603Z,2.00
2017-07-14T16:32:05.225Z,2.43
2017-07-14T16:34:39.027Z,1.80
2017-07-14T16:37:12.603Z,2.03
2017-07-14T16:39:46.250Z,2.20
2017-07-14T16:42:19.792Z,3.13
2017-07-14T16:44:53.630Z,2.03
2017-07-14T16:47:28.374Z,2.33
2017-07-14T16:50:02.042Z,2.50
2017-07-14T16:52:35.850Z,2.58
2017-07-14T16:55:09.529Z,2.27
2017-07-14T16:57:43.395Z,2.40
2017-07-14T17:00:17.242Z,2.40
2017-07-14T17:02:51.304Z,2.20
2017-07-14T17:05:25.095Z,3.23
2017-07-14T17:07:58.817Z,6.40
2017-07-14T17:10:33.511Z,5.67
2017-07-14T17:13:07.183Z,4.40
2017-07-14T17:15:41.060Z,4.60
2017-07-14T17:18:14.709Z,2.30
2017-07-14T17:20:48.374Z,1.80
2017-07-14T17:23:21.863Z,1.67
2017-07-14T17:25:55.343Z,1.87
2017-07-14T17:28:28.990Z,1.73
2017-07-14T17:31:02.738Z,1.37
2017-07-14T17:33:36.297Z,1.33
2017-07-14T17:36:09.935Z,1.63
2017-07-14T17:38:43.639Z,1.40
2017-07-14T17:41:17.235Z,1.80
2017-07-14T17:43:50.805Z,1.70
2017-07-14T17:46:24.530Z,1.40
2017-07-14T17:48:58.952Z,1.40
2017-07-14T17:51:32.558Z,1.60
2017-07-14T17:54:06.031Z,1.40
2017-07-14T17:56:39.583Z,1.60
2017-07-14T17:59:13.070Z,1.40
2017-07-14T18:01:46.764Z,1.70
2017-07-14T18:04:20.318Z,1.40
2017-07-14T18:06:53.870Z,1.50
2017-07-14T18:09:27.337Z,1.40
2017-07-14T18:12:00.895Z,1.50
2017-07-14T18:14:34.359Z,1.40
2017-07-14T18:17:07.900Z,6.03
2017-07-14T18:19:41.526Z,9.13
2017-07-14T18:22:15.167Z,3.50
2017-07-14T18:24:48.634Z,1.80
2017-07-14T18:27:22.258Z,1.47
2017-07-14T18:29:55.912Z,1.30
2017-07-14T18:32:29.452Z,1.60
2017-07-14T18:35:02.942Z,1.30
2017-07-14T18:37:36.418Z,1.40
2017-07-14T18:40:09.948Z,1.20
2017-07-14T18:42:43.647Z,1.57
2017-07-14T18:45:17.230Z,1.10
2017-07-14T18:47:50.713Z,1.60
2017-07-14T18:50:24.236Z,1.47
2017-07-14T18:52:57.788Z,1.40
2017-07-14T18:55:31.315Z,1.40
2017-07-14T18:58:04.879Z,1.40
2017-07-14T19:00:38.347Z,1.50
2017-07-14T19:03:12.050Z,1.33
2017-07-14T19:05:45.667Z,1.47
2017-07-14T19:08:19.313Z,1.50
2017-07-14T19:10:52.923Z,1.67
2017-07-14T19:13:26.599Z,1.60
2017-07-14T19:16:00.195Z,1.50
2017-07-14T19:18:33.758Z,2.13
2017-07-14T19:21:07.268Z,1.47
2017-07-14T19:23:40.968Z,1.30
2017-07-14T19:26:14.443Z,1.73
2017-07-14T19:28:48.161Z,1.50
2017-07-14T19:31:21.718Z,1.97
2017-07-14T19:33:55.203Z,2.33
2017-07-14T19:36:28.699Z,2.30
2017-07-14T19:39:02.378Z,2.00
2017-07-14T19:41:35.915Z,2.33
2017-07-14T19:44:09.535Z,2.00
2017-07-14T19:46:43.068Z,2.27
2017-07-14T19:49:16.615Z,1.70
2017-07-14T19:51:50.072Z,5.20
2017-07-14T19:54:23.635Z,6.93
2017-07-14T19:56:57.103Z,5.40
2017-07-14T19:59:30.672Z,2.30
2017-07-14T20:02:04.296Z,1.93
2017-07-14T20:04:37.834Z,2.00
2017-07-14T20:07:11.443Z,1.57
2017-07-14T20:09:45.135Z,1.70
2017-07-14T20:12:18.604Z,2.10
2017-07-14T20:14:52.202Z,1.90
2017-07-14T20:17:25.728Z,1.90
2017-07-14T20:19:59.292Z,1.80
2017-07-14T20:22:32.890Z,1.60
2017-07-14T20:25:06.457Z,1.70
2017-07-14T20:27:40.071Z,1.60
2017-07-14T20:30:13.765Z,1.50
2017-07-14T20:32:47.226Z,1.70
2017-07-14T20:35:20.791Z,1.77
2017-07-14T20:37:54.463Z,1.43
2017-07-14T20:40:28.014Z,1.50
2017-07-14T20:43:01.470Z,1.43
2017-07-14T20:45:35.155Z,1.50
2017-07-14T20:48:08.629Z,1.50
2017-07-14T20:50:42.203Z,1.60
2017-07-14T20:53:15.854Z,1.50
2017-07-14T20:55:49.424Z,1.80
2017-07-14T20:58:22.898Z,1.43
2017-07-14T21:00:56.447Z,1.40
2017-07-14T21:03:30.051Z,1.43
2017-07-14T21:06:03.827Z,1.37
2017-07-14T21:08:37.313Z,1.30
2017-07-14T21:11:10.805Z,1.53
2017-07-14T21:13:44.268Z,1.50
2017-07-14T21:16:17.840Z,3.90
2017-07-14T21:18:51.372Z,1.60
2017-07-14T21:21:24.930Z,1.50
2017-07-14T21:23:58.406Z,2.00
2017-07-14T21:26:31.901Z,1.60
2017-07-14T21:29:05.435Z,1.37
2017-07-14T21:31:39.104Z,1.60
2017-07-14T21:34:12.568Z,1.60
2017-07-14T21:36:46.901Z,1.97
2017-07-14T21:39:20.522Z,1.70
2017-07-14T21:41:54.199Z,1.30
2017-07-14T21:44:27.727Z,1.47
2017-07-14T21:47:01.318Z,1.70
2017-07-14T21:49:34.943Z,2.23
2017-07-14T21:52:08.448Z,1.60
2017-07-14T21:54:42.075Z,2.37
2017-07-14T21:57:15.565Z,1.90
2017-07-14T21:59:49.179Z,2.00
2017-07-14T22:02:22.871Z,2.10
2017-07-14T22:04:56.340Z,1.80
2017-07-14T22:07:30.023Z,2.20
2017-07-14T22:10:03.641Z,1.97
2017-07-14T22:12:37.196Z,8.20
2017-07-14T22:15:10.799Z,7.00
2017-07-14T22:17:44.488Z,10.57
2017-07-14T22:20:17.983Z,17.87
2017-07-14T22:22:51.547Z,5.00
2017-07-14T22:25:25.011Z,2.87
2017-07-14T22:27:58.715Z,1.97
2017-07-14T22:30:32.311Z,2.10
2017-07-14T22:33:05.848Z,2.20
2017-07-14T22:35:39.380Z,2.60
2017-07-14T22:38:12.859Z,2.40
2017-07-14T22:40:46.389Z,2.20
2017-07-14T22:43:20.093Z,2.70
2017-07-14T22:45:53.752Z,1.93
2017-07-14T22:48:27.420Z,2.63
2017-07-14T22:51:00.954Z,2.50
2017-07-14T22:53:34.513Z,2.70
2017-07-14T22:56:07.979Z,2.50
2017-07-14T22:58:41.548Z,2.57
2017-07-14T23:01:15.162Z,2.40
2017-07-14T23:03:48.710Z,2.70
2017-07-14T23:06:22.182Z,2.77
2017-07-14T23:08:55.715Z,3.40
2017-07-14T23:11:29.331Z,3.30
2017-07-14T23:14:02.839Z,2.50
2017-07-14T23:16:36.307Z,2.90
2017-07-14T23:19:09.877Z,2.40
2017-07-14T23:21:43.343Z,2.23
2017-07-14T23:24:16.947Z,1.80
2017-07-14T23:26:50.542Z,2.40
2017-07-14T23:29:24.124Z,1.87
2017-07-14T23:31:57.588Z,2.17
2017-07-14T23:34:31.074Z,2.30
2017-07-14T23:37:04.535Z,2.20
2017-07-14T23:39:38.219Z,2.67
2017-07-14T23:42:11.798Z,2.40
2017-07-14T23:44:45.406Z,2.90
2017-07-14T23:47:18.878Z,2.47
2017-07-14T23:49:53.404Z,5.90
2017-07-14T23:52:26.943Z,11.07
2017-07-14T23:55:00.527Z,7.20
2017-07-14T23:57:34.203Z,9.87
